HELX  Luxor International Airport

Add Bookmark

Luxor, Egypt

Status IATA
Operational LXR
Latitude Longitude
25° 40' 15" N 32° 42' 23" E
25.671000 32.706600
Local (DST + 2) UTC (GMT + 2)
Oct 25, 2014 02:38 Oct 25, 2014 12:38
Sunrise-Sunset Local UTC
Begin Civil Twilight 05:28 03:28
Sunrise 05:52 03:52
Sunset 05:14 15:14
End Civil Twilight 05:37 15:37

Current Weather

METAR Observed VFR
HELX 251200Z 04004KT CAVOK 33/10 Q1013 NOSIG Sat, Oct 25, 2014 @ 12:00 UTC
(38 Minutes ago)
Visual Flight Rules
Wind Visibility Clouds Conditions
040° at 4 knots (7 kph) 10 km or more
  • Clear skies
  • No significant weather
Temperatures Readings Precipitation
Current Temp 33°C (91°F)
Dewpoint 10°C (50°F)
Humidity 24%
Altimeter 29.91"Hg
Sea Level Pressure 1013mb
Field Elevation 288.71'
None Recorded

Forecast Weather

TAF
TAF HELX 251100Z 2512/2618 34008KT CAVOK
From To
Sat, Oct 25, 2014 @ 12:00 UTC Sun, Oct 26, 2014 @ 18:00 UTC
Wind Visibility Conditions
340° at 8 knots (15 kph) 10 km or more
  • No significant weather

24 Hour Weather History

Loading
-

24 Hour Weather Graphs

Loading
-

CheckWX.com is intended as a tool to help pilots better visualize weather data. It is not intended as a substitute for an official weather briefing obtained from a Flight Service Station. CheckWX.com does not meet the FAA requirements for an official pre-flight weather briefing. Therefore, it's important that pilots still call and obtain an official FSS pre-flight weather briefing.